Terminal Aerodrome Forecast
Issued by NWS

Home | Current Version | Previous Version | Text Only | Print | Product List | Glossary On
Versions: 1 2 3 4 5 6 7 8 9 10 11 12 13 14 15 16 17 18 19 20 21 22 23 24 25 26
000
FTUS46 KMFR 231751
TAFOTH
TAF
KOTH 231751Z 2318/2418 14004KT P6SM VCSH SKC
     FM232100 35005KT P6SM VCSH SCT025 BKN040
     FM240400 14003KT P6SM SCT040 BKN100
     FM241500 15005KT P6SM -RA BKN025 OVC040=

USA.gov is the U.S. government's official web portal to all federal, state and local government web resources and services.